createdAt,value
2022-11-04T00:02:12.487Z,66.73
2022-11-04T00:04:39.606Z,66.76
2022-11-04T00:07:26.591Z,66.85
2022-11-04T00:09:53.777Z,66.95
2022-11-04T00:12:26.739Z,66.67
2022-11-04T00:14:54.451Z,66.76
2022-11-04T00:17:24.289Z,66.86
2022-11-04T00:20:11.862Z,66.62
2022-11-04T00:22:59.790Z,66.84
2022-11-04T00:25:46.712Z,66.79
2022-11-04T00:28:37.668Z,66.72
2022-11-04T00:31:25.829Z,66.77
2022-11-04T00:33:55.303Z,66.93
2022-11-04T00:36:24.350Z,66.94
2022-11-04T00:38:51.456Z,66.81
2022-11-04T00:41:28.136Z,66.72
2022-11-04T00:44:01.445Z,66.83
2022-11-04T00:46:29.867Z,66.66
2022-11-04T00:48:57.755Z,67.02
2022-11-04T00:51:25.209Z,66.89
2022-11-04T00:53:52.578Z,66.94
2022-11-04T00:56:19.964Z,66.93
2022-11-04T00:58:47.044Z,66.90
2022-11-04T01:01:19.486Z,67.00
2022-11-04T01:03:48.822Z,66.89
2022-11-04T01:06:16.212Z,66.97
2022-11-04T01:08:43.211Z,66.79
2022-11-04T01:11:11.031Z,67.06
2022-11-04T01:13:38.639Z,67.03
2022-11-04T01:16:11.186Z,66.89
2022-11-04T01:18:38.699Z,67.00
2022-11-04T01:21:07.738Z,66.73
2022-11-04T01:23:35.545Z,66.80
2022-11-04T01:26:06.527Z,66.82
2022-11-04T01:28:33.894Z,66.93
2022-11-04T01:31:06.257Z,66.91
2022-11-04T01:33:33.411Z,66.92
2022-11-04T01:36:01.113Z,66.98
2022-11-04T01:38:29.039Z,66.96
2022-11-04T01:40:56.443Z,66.98
2022-11-04T01:43:24.031Z,66.81
2022-11-04T01:45:57.525Z,66.78
2022-11-04T01:48:31.750Z,66.98
2022-11-04T01:51:00.205Z,66.86
2022-11-04T01:53:34.144Z,66.91
2022-11-04T01:56:05.554Z,66.94
2022-11-04T01:58:35.292Z,66.83
2022-11-04T02:01:02.882Z,66.80
2022-11-04T02:03:35.083Z,66.84
2022-11-04T02:06:03.236Z,66.93
2022-11-04T02:08:30.482Z,66.90
2022-11-04T02:11:03.465Z,67.00
2022-11-04T02:13:34.010Z,66.81
2022-11-04T02:16:13.245Z,66.84
2022-11-04T02:18:52.437Z,66.82
2022-11-04T02:21:43.884Z,66.97
2022-11-04T02:24:32.316Z,66.96
2022-11-04T02:27:21.223Z,67.06
2022-11-04T02:30:14.464Z,66.86
2022-11-04T02:33:02.983Z,66.86
2022-11-04T02:35:42.978Z,66.89
2022-11-04T02:38:23.718Z,66.71
2022-11-04T02:41:19.247Z,66.89
2022-11-04T02:43:46.322Z,66.98
2022-11-04T02:46:38.685Z,66.68
2022-11-04T02:49:17.247Z,66.76
2022-11-04T02:51:53.745Z,66.79
2022-11-04T02:54:28.217Z,66.79
2022-11-04T02:56:59.097Z,66.71
2022-11-04T02:59:38.536Z,66.92
2022-11-04T03:02:09.530Z,66.96
2022-11-04T03:04:42.401Z,66.80
2022-11-04T03:07:15.132Z,66.91
2022-11-04T03:09:50.073Z,67.07
2022-11-04T03:12:23.149Z,66.88
2022-11-04T03:14:55.106Z,66.92
2022-11-04T03:17:28.239Z,66.82
2022-11-04T03:20:00.357Z,66.81
2022-11-04T03:22:30.779Z,66.92
2022-11-04T03:24:58.293Z,66.69
2022-11-04T03:27:49.632Z,66.91
2022-11-04T03:30:22.353Z,66.90
2022-11-04T03:33:26.832Z,66.88
2022-11-04T03:35:54.081Z,67.02
2022-11-04T03:38:23.132Z,66.97
2022-11-04T03:40:51.153Z,67.00
2022-11-04T03:43:24.308Z,66.89
2022-11-04T03:45:51.986Z,66.87
2022-11-04T03:48:19.202Z,66.70
2022-11-04T03:50:48.262Z,66.68
2022-11-04T03:56:13.408Z,66.94
2022-11-04T03:58:59.389Z,66.88
2022-11-04T04:01:45.189Z,66.88
2022-11-04T04:04:25.805Z,66.84
2022-11-04T04:06:58.182Z,66.94
2022-11-04T04:10:29.882Z,67.01
2022-11-04T04:13:01.678Z,66.71
2022-11-04T04:15:39.461Z,66.88
2022-11-04T04:18:10.540Z,67.02
2022-11-04T04:20:40.855Z,66.87
2022-11-04T04:23:42.401Z,66.79
2022-11-04T04:26:29.630Z,66.87
2022-11-04T04:28:59.061Z,66.85
2022-11-04T04:31:47.601Z,66.93
2022-11-04T04:34:15.552Z,66.87
2022-11-04T04:36:49.325Z,66.91
2022-11-04T04:39:39.034Z,66.83
2022-11-04T04:42:25.168Z,66.83
2022-11-04T04:45:04.042Z,67.02
2022-11-04T04:47:44.264Z,66.94
2022-11-04T04:50:15.289Z,66.97
2022-11-04T04:52:46.117Z,66.98
2022-11-04T04:55:14.357Z,66.88
2022-11-04T04:57:41.455Z,66.86
2022-11-04T05:00:12.426Z,66.98
2022-11-04T05:02:39.599Z,66.87
2022-11-04T05:05:07.432Z,66.84
2022-11-04T05:07:34.497Z,66.93
2022-11-04T05:10:01.788Z,66.84
2022-11-04T05:12:48.800Z,66.91
2022-11-04T05:15:16.269Z,66.95
2022-11-04T05:17:43.614Z,66.98
2022-11-04T05:20:11.616Z,66.81
2022-11-04T05:22:39.093Z,66.92
2022-11-04T05:25:06.527Z,66.96
2022-11-04T05:27:33.684Z,66.87
2022-11-04T05:30:00.810Z,66.89
2022-11-04T05:32:32.481Z,66.76
2022-11-04T05:34:59.927Z,67.01
2022-11-04T05:37:27.037Z,66.83
2022-11-04T05:39:54.300Z,67.09
2022-11-04T05:42:21.563Z,66.95
2022-11-04T05:44:48.802Z,66.97
2022-11-04T05:47:17.156Z,66.87
2022-11-04T05:49:44.416Z,66.82
2022-11-04T05:52:11.532Z,67.02
2022-11-04T05:54:39.483Z,66.94
2022-11-04T05:57:06.657Z,66.94
2022-11-04T05:59:33.731Z,66.85
2022-11-04T06:02:01.011Z,67.01
2022-11-04T06:04:28.284Z,67.02
2022-11-04T06:06:55.384Z,66.90
2022-11-04T06:09:38.975Z,67.08
2022-11-04T06:12:07.096Z,66.85
2022-11-04T06:14:34.062Z,66.79
2022-11-04T06:17:01.287Z,66.98
2022-11-04T06:19:28.461Z,66.74
2022-11-04T06:21:55.889Z,66.76
2022-11-04T06:24:23.014Z,66.78
2022-11-04T06:26:50.143Z,66.93
2022-11-04T06:29:17.290Z,66.90
2022-11-04T06:31:44.384Z,66.84
2022-11-04T06:34:11.332Z,66.88
2022-11-04T06:36:38.301Z,66.85
2022-11-04T06:39:05.680Z,66.73
2022-11-04T06:41:32.805Z,66.95
2022-11-04T06:43:59.936Z,67.11
2022-11-04T06:46:38.361Z,66.90
2022-11-04T06:49:07.285Z,66.98
2022-11-04T06:51:34.758Z,66.82
2022-11-04T06:54:01.858Z,66.92
2022-11-04T06:56:28.925Z,66.88
2022-11-04T06:58:56.749Z,66.69
2022-11-04T07:01:27.658Z,66.96
2022-11-04T07:03:57.375Z,66.80
2022-11-04T07:06:25.572Z,66.95
2022-11-04T07:08:53.498Z,66.94
2022-11-04T07:11:22.248Z,66.98
2022-11-04T07:13:49.591Z,66.88
2022-11-04T07:16:17.973Z,67.01
2022-11-04T07:18:45.612Z,67.15
2022-11-04T07:21:12.900Z,67.05
2022-11-04T07:23:39.967Z,66.93
2022-11-04T07:26:10.414Z,66.89
2022-11-04T07:28:38.252Z,67.07
2022-11-04T07:31:07.912Z,66.90
2022-11-04T07:33:35.420Z,67.01
2022-11-04T07:36:08.257Z,67.06
2022-11-04T07:38:35.387Z,67.02
2022-11-04T07:41:02.729Z,66.89
2022-11-04T07:43:30.654Z,67.02
2022-11-04T07:46:04.220Z,67.02
2022-11-04T07:48:31.378Z,66.93
2022-11-04T07:50:59.821Z,67.02
2022-11-04T07:53:28.072Z,66.81
2022-11-04T07:55:55.489Z,66.98
2022-11-04T07:58:23.951Z,67.04
2022-11-04T08:00:51.527Z,66.80
2022-11-04T08:03:18.637Z,67.09
2022-11-04T08:05:45.822Z,66.88
2022-11-04T08:08:13.358Z,67.09
2022-11-04T08:10:40.472Z,66.99
2022-11-04T08:13:08.083Z,67.01
2022-11-04T08:15:36.488Z,66.93
2022-11-04T08:18:03.715Z,66.91
2022-11-04T08:20:30.762Z,67.09
2022-11-04T08:22:57.876Z,66.99
2022-11-04T08:25:24.981Z,67.05
2022-11-04T08:27:56.722Z,67.01
2022-11-04T08:30:26.818Z,67.05
2022-11-04T08:32:53.950Z,67.01
2022-11-04T08:35:21.097Z,67.04
2022-11-04T08:37:48.159Z,67.08
2022-11-04T08:40:15.365Z,67.02
2022-11-04T08:42:42.433Z,67.15
2022-11-04T08:45:09.699Z,66.93
2022-11-04T08:47:38.737Z,67.12
2022-11-04T08:50:06.148Z,66.90
2022-11-04T08:52:34.441Z,67.14
2022-11-04T08:55:01.543Z,66.87
2022-11-04T08:57:28.499Z,66.95
2022-11-04T08:59:55.881Z,66.84
2022-11-04T09:02:22.978Z,67.18
2022-11-04T09:04:50.079Z,67.13
2022-11-04T09:07:17.318Z,67.29
2022-11-04T09:09:44.379Z,67.26
2022-11-04T09:12:11.992Z,67.24
2022-11-04T09:14:39.130Z,67.02
2022-11-04T09:17:06.191Z,67.20
2022-11-04T09:19:33.206Z,67.13
2022-11-04T09:22:00.468Z,67.30
2022-11-04T09:24:27.612Z,67.37
2022-11-04T09:26:54.664Z,67.37
2022-11-04T09:29:21.856Z,67.35
2022-11-04T09:31:50.346Z,67.27
2022-11-04T09:34:18.168Z,67.28
2022-11-04T09:36:45.302Z,67.34
2022-11-04T09:39:12.388Z,67.42
2022-11-04T09:41:48.695Z,67.34
2022-11-04T09:45:19.951Z,67.24
2022-11-04T09:47:40.857Z,67.33
2022-11-04T09:50:16.460Z,67.56
2022-11-04T09:52:45.042Z,67.53
2022-11-04T09:55:31.172Z,67.30
2022-11-04T09:57:59.146Z,67.38
2022-11-04T10:00:30.275Z,67.59
2022-11-04T10:03:19.297Z,67.59
2022-11-04T10:05:57.499Z,67.60
2022-11-04T10:08:50.709Z,67.54
2022-11-04T10:11:26.606Z,67.44
2022-11-04T10:14:15.608Z,67.64
2022-11-04T10:17:18.076Z,67.61
2022-11-04T10:20:13.181Z,67.55
2022-11-04T10:22:59.284Z,67.77
2022-11-04T10:25:38.511Z,67.58
2022-11-04T10:28:08.432Z,67.53
2022-11-04T10:30:35.702Z,67.50
2022-11-04T10:33:17.160Z,67.65
2022-11-04T10:35:48.533Z,67.51
2022-11-04T10:38:21.103Z,67.42
2022-11-04T10:40:53.517Z,67.55
2022-11-04T10:43:35.966Z,67.50
2022-11-04T10:46:18.582Z,67.53
2022-11-04T10:48:57.983Z,67.61
2022-11-04T10:51:25.468Z,67.73
2022-11-04T10:53:58.700Z,67.58
2022-11-04T10:56:44.212Z,67.78
2022-11-04T10:59:25.385Z,67.53
2022-11-04T11:01:54.807Z,67.70
2022-11-04T11:04:29.944Z,67.69
2022-11-04T11:06:58.841Z,67.74
2022-11-04T11:09:32.479Z,67.67
2022-11-04T11:12:49.954Z,67.85
2022-11-04T11:15:29.679Z,67.77
2022-11-04T11:18:15.281Z,67.61
2022-11-04T11:20:48.222Z,67.64
2022-11-04T11:23:38.392Z,67.77
2022-11-04T11:26:08.413Z,67.60
2022-11-04T11:28:38.817Z,67.35
2022-11-04T11:31:13.212Z,67.44
2022-11-04T11:33:56.173Z,67.49
2022-11-04T11:36:30.613Z,67.71
2022-11-04T11:39:17.074Z,67.47
2022-11-04T11:41:56.239Z,67.34
2022-11-04T11:44:44.633Z,67.34
2022-11-04T11:47:20.127Z,67.54
2022-11-04T11:50:03.834Z,67.22
2022-11-04T11:52:33.870Z,67.36
2022-11-04T11:55:30.268Z,67.61
2022-11-04T12:01:23.832Z,67.45
2022-11-04T12:09:53.257Z,67.48
2022-11-04T12:12:43.785Z,67.62
2022-11-04T12:15:27.092Z,67.55
2022-11-04T12:18:28.504Z,67.63
2022-11-04T12:21:21.176Z,67.36
2022-11-04T12:24:17.301Z,67.49
2022-11-04T12:26:50.491Z,67.22
2022-11-04T12:29:31.236Z,67.50
2022-11-04T12:32:04.468Z,67.31
2022-11-04T12:34:59.719Z,67.38
2022-11-04T12:37:52.376Z,67.36
2022-11-04T12:40:29.707Z,67.29
2022-11-04T12:43:21.900Z,67.18
2022-11-04T12:46:07.521Z,67.03
2022-11-04T12:48:50.746Z,67.06
2022-11-04T12:51:26.377Z,67.00
2022-11-04T12:54:05.709Z,67.14
2022-11-04T12:56:38.260Z,67.17
2022-11-04T12:59:14.650Z,67.06
2022-11-04T13:01:48.640Z,67.26
2022-11-04T13:04:36.037Z,67.18
2022-11-04T13:07:14.633Z,67.26
2022-11-04T13:09:50.024Z,67.16
2022-11-04T13:12:30.556Z,67.17
2022-11-04T13:15:01.965Z,67.30
2022-11-04T13:17:41.577Z,67.13
2022-11-04T13:20:16.094Z,67.14
2022-11-04T13:22:49.420Z,67.12
2022-11-04T13:25:31.879Z,67.14
2022-11-04T13:28:00.879Z,67.10
2022-11-04T13:30:27.846Z,67.12
2022-11-04T13:33:25.861Z,67.07
2022-11-04T13:35:56.012Z,67.05
2022-11-04T13:38:30.002Z,67.16
2022-11-04T13:41:21.577Z,67.12
2022-11-04T13:43:53.865Z,67.17
2022-11-04T13:46:30.123Z,67.24
2022-11-04T13:49:00.188Z,67.22
2022-11-04T13:52:00.433Z,67.01
2022-11-04T13:54:32.453Z,67.21
2022-11-04T13:57:17.891Z,67.14
2022-11-04T14:00:09.548Z,67.35
2022-11-04T14:02:54.608Z,67.33
2022-11-04T14:05:27.446Z,67.37
2022-11-04T14:08:03.640Z,67.24
2022-11-04T14:10:49.326Z,67.15
2022-11-04T14:13:31.712Z,67.05
2022-11-04T14:16:04.288Z,67.06
2022-11-04T14:18:34.118Z,67.17
2022-11-04T14:21:29.417Z,67.17
2022-11-04T14:24:01.843Z,67.14
2022-11-04T14:26:43.035Z,67.18
2022-11-04T14:29:18.284Z,67.06
2022-11-04T14:31:55.413Z,67.02
2022-11-04T14:34:25.175Z,66.99
2022-11-04T14:36:57.974Z,66.97
2022-11-04T14:39:30.509Z,67.07
2022-11-04T14:42:01.756Z,67.20
2022-11-04T14:44:58.834Z,67.06
2022-11-04T14:47:30.945Z,67.21
2022-11-04T14:49:57.941Z,67.08
2022-11-04T14:52:35.163Z,67.01
2022-11-04T14:55:13.582Z,67.18
2022-11-04T14:57:43.852Z,66.89
2022-11-04T15:00:25.693Z,67.02
2022-11-04T15:03:57.915Z,66.93
2022-11-04T15:06:11.533Z,67.06
2022-11-04T15:08:41.457Z,67.09
2022-11-04T15:11:17.271Z,67.11
2022-11-04T15:13:50.665Z,67.16
2022-11-04T15:16:24.683Z,66.97
2022-11-04T15:18:53.973Z,66.95
2022-11-04T15:21:21.509Z,67.09
2022-11-04T15:23:54.101Z,67.05
2022-11-04T15:26:29.186Z,67.07
2022-11-04T15:29:01.684Z,67.15
2022-11-04T15:31:33.691Z,67.07
2022-11-04T15:34:03.847Z,67.18
2022-11-04T15:36:40.132Z,66.98
2022-11-04T15:39:12.934Z,67.17
2022-11-04T15:42:00.783Z,66.98
2022-11-04T15:44:33.433Z,67.20
2022-11-04T15:47:07.941Z,66.86
2022-11-04T15:49:37.394Z,66.99
2022-11-04T15:52:11.977Z,66.93
2022-11-04T15:54:46.179Z,67.23
2022-11-04T15:57:24.157Z,67.03
2022-11-04T16:00:24.609Z,67.09
2022-11-04T16:02:57.933Z,66.98
2022-11-04T16:05:29.909Z,67.22
2022-11-04T16:08:19.267Z,66.87
2022-11-04T16:10:46.645Z,66.98
2022-11-04T16:13:16.807Z,67.18
2022-11-04T16:15:50.232Z,67.17
2022-11-04T16:18:25.088Z,67.03
2022-11-04T16:20:54.389Z,66.93
2022-11-04T16:23:25.151Z,67.08
2022-11-04T16:26:05.907Z,67.08
2022-11-04T16:28:38.551Z,67.19
2022-11-04T16:31:23.224Z,66.93
2022-11-04T16:33:50.977Z,67.15
2022-11-04T16:36:24.758Z,67.13
2022-11-04T16:38:56.794Z,67.02
2022-11-04T16:41:26.874Z,67.00
2022-11-04T16:43:55.295Z,66.89
2022-11-04T16:46:22.707Z,66.97
2022-11-04T16:48:50.136Z,66.79
2022-11-04T16:51:23.978Z,66.78
2022-11-04T16:53:52.656Z,66.87
2022-11-04T16:56:24.615Z,66.90
2022-11-04T16:58:52.196Z,66.91
2022-11-04T17:01:19.798Z,67.00
2022-11-04T17:03:47.127Z,67.10
2022-11-04T17:06:15.767Z,66.99
2022-11-04T17:08:43.547Z,66.96
2022-11-04T17:11:11.839Z,66.72
2022-11-04T17:13:39.718Z,66.94
2022-11-04T17:16:08.470Z,66.70
2022-11-04T17:18:35.559Z,66.80
2022-11-04T17:21:07.568Z,66.88
2022-11-04T17:23:35.321Z,67.04
2022-11-04T17:26:02.337Z,66.94
2022-11-04T17:28:31.614Z,66.81
2022-11-04T17:30:58.737Z,66.94
2022-11-04T17:33:25.793Z,66.88
2022-11-04T17:35:52.954Z,66.76
2022-11-04T17:38:20.316Z,66.84
2022-11-04T17:41:06.013Z,66.81
2022-11-04T17:43:52.044Z,66.74
2022-11-04T17:46:35.054Z,67.01
2022-11-04T17:49:04.802Z,66.98
2022-11-04T17:51:32.182Z,67.20
2022-11-04T17:53:59.374Z,67.33
2022-11-04T17:56:26.494Z,67.21
2022-11-04T17:58:53.745Z,67.18
2022-11-04T18:01:23.196Z,67.06
2022-11-04T18:03:54.517Z,66.87
2022-11-04T18:06:22.632Z,66.87
2022-11-04T18:08:53.485Z,67.01
2022-11-04T18:11:41.718Z,66.99
2022-11-04T18:14:15.325Z,66.96
2022-11-04T18:16:46.219Z,66.95
2022-11-04T18:29:49.313Z,66.51
2022-11-04T18:32:16.383Z,66.59
2022-11-04T18:34:43.547Z,66.73
2022-11-04T18:37:11.476Z,66.69
2022-11-04T18:39:41.916Z,66.60
2022-11-04T18:42:09.790Z,66.71
2022-11-04T18:44:37.191Z,66.59
2022-11-04T18:47:04.477Z,66.82
2022-11-04T18:49:31.590Z,67.01
2022-11-04T18:52:00.834Z,66.89
2022-11-04T18:54:27.828Z,66.84
2022-11-04T18:56:54.916Z,66.78
2022-11-04T18:59:22.073Z,66.64
2022-11-04T19:01:51.333Z,66.72
2022-11-04T19:04:18.956Z,66.59
2022-11-04T19:06:46.754Z,66.78
2022-11-04T19:09:45.306Z,66.74
2022-11-04T19:12:22.622Z,66.72
2022-11-04T19:14:49.788Z,66.84
2022-11-04T19:17:16.946Z,66.92
2022-11-04T19:19:44.009Z,66.71
2022-11-04T19:22:11.859Z,66.55
2022-11-04T19:24:39.777Z,66.94
2022-11-04T19:27:10.445Z,66.64
2022-11-04T19:29:42.286Z,66.78
2022-11-04T19:32:14.264Z,66.61
2022-11-04T19:34:46.826Z,66.81
2022-11-04T19:37:14.710Z,66.78
2022-11-04T19:39:43.875Z,66.66
2022-11-04T19:42:32.658Z,66.91
2022-11-04T19:45:02.092Z,66.71
2022-11-04T19:47:29.722Z,66.92
2022-11-04T19:49:57.131Z,66.94
2022-11-04T19:52:46.074Z,66.78
2022-11-04T19:55:14.996Z,66.87
2022-11-04T19:57:43.808Z,66.84
2022-11-04T20:00:12.272Z,66.95
2022-11-04T20:02:39.861Z,66.76
2022-11-04T20:05:08.715Z,66.76
2022-11-04T20:07:36.573Z,66.81
2022-11-04T20:10:07.161Z,66.84
2022-11-04T20:12:56.615Z,66.84
2022-11-04T20:15:26.471Z,66.91
2022-11-04T20:17:53.729Z,66.79
2022-11-04T20:20:20.934Z,66.98
2022-11-04T20:22:48.042Z,66.76
2022-11-04T20:25:15.398Z,66.92
2022-11-04T20:27:42.548Z,66.67
2022-11-04T20:30:10.130Z,66.75
2022-11-04T20:32:37.187Z,66.88
2022-11-04T20:35:04.597Z,66.76
2022-11-04T20:37:31.696Z,66.72
2022-11-04T20:39:58.930Z,66.67
2022-11-04T20:42:26.101Z,66.81
2022-11-04T20:44:53.255Z,66.75
2022-11-04T20:47:20.417Z,66.95
2022-11-04T20:49:47.609Z,66.93
2022-11-04T20:52:15.677Z,66.86
2022-11-04T20:54:42.875Z,66.78
2022-11-04T20:57:10.687Z,66.72
2022-11-04T20:59:38.383Z,66.98
2022-11-04T21:02:05.470Z,67.03
2022-11-04T21:04:36.142Z,67.18
2022-11-04T21:07:03.793Z,67.11
2022-11-04T21:09:30.970Z,67.13
2022-11-04T21:11:58.386Z,67.22
2022-11-04T21:14:25.505Z,67.15
2022-11-04T21:16:52.716Z,67.15
2022-11-04T21:19:22.043Z,67.16
2022-11-04T21:21:49.217Z,67.35
2022-11-04T21:24:16.671Z,67.07
2022-11-04T21:26:44.471Z,67.23
2022-11-04T21:29:15.132Z,67.04
2022-11-04T21:31:43.731Z,67.30
2022-11-04T21:34:11.400Z,67.22
2022-11-04T21:36:39.369Z,67.20
2022-11-04T21:39:07.165Z,67.35
2022-11-04T21:41:37.243Z,67.25
2022-11-04T21:44:10.171Z,67.38
2022-11-04T21:46:37.624Z,67.43
2022-11-04T21:49:04.945Z,67.45
2022-11-04T21:51:33.636Z,67.39
2022-11-04T21:54:00.789Z,67.39
2022-11-04T21:56:29.925Z,67.26
2022-11-04T21:58:57.353Z,67.43
2022-11-04T22:01:27.564Z,67.45
2022-11-04T22:03:58.834Z,67.44
2022-11-04T22:06:33.180Z,67.43
2022-11-04T22:09:02.045Z,67.56
2022-11-04T22:11:31.417Z,67.68
2022-11-04T22:14:01.804Z,67.63
2022-11-04T22:16:31.410Z,67.45
2022-11-04T22:19:01.294Z,67.63
2022-11-04T22:21:30.431Z,67.68
2022-11-04T22:23:58.211Z,67.44
2022-11-04T22:26:28.488Z,67.69
2022-11-04T22:28:56.521Z,67.76
2022-11-04T22:31:33.153Z,67.90
2022-11-04T22:34:01.619Z,67.63
2022-11-04T22:36:30.621Z,67.77
2022-11-04T22:38:58.871Z,67.76
2022-11-04T22:41:33.346Z,67.93
2022-11-04T22:44:00.571Z,67.72
2022-11-04T22:46:30.059Z,67.77
2022-11-04T22:48:57.351Z,67.76
2022-11-04T22:51:24.755Z,67.92
2022-11-04T22:53:57.881Z,67.71
2022-11-04T22:56:27.388Z,67.80
2022-11-04T22:58:54.689Z,67.84
2022-11-04T23:01:21.957Z,67.78
2022-11-04T23:03:52.122Z,67.85
2022-11-04T23:06:19.829Z,68.08
2022-11-04T23:08:46.931Z,67.86
2022-11-04T23:11:40.746Z,68.15
2022-11-04T23:14:31.280Z,67.90
2022-11-04T23:17:18.005Z,67.95
2022-11-04T23:19:45.302Z,67.88
2022-11-04T23:22:31.270Z,67.98
2022-11-04T23:25:09.474Z,67.87
2022-11-04T23:28:04.286Z,67.93
2022-11-04T23:30:35.289Z,67.88
2022-11-04T23:33:05.471Z,68.12
2022-11-04T23:35:55.974Z,67.96
2022-11-04T23:38:24.355Z,68.16
2022-11-04T23:41:13.687Z,68.06
2022-11-04T23:43:41.089Z,68.03
2022-11-04T23:46:27.479Z,68.09
2022-11-04T23:49:26.938Z,67.99
2022-11-04T23:52:13.077Z,68.10
2022-11-04T23:54:58.868Z,68.13
2022-11-04T23:57:44.650Z,68.23
